| time (UTC) | temp C | wind direction | speed KPH | gust KPH | rain 1hr cm | rain 24hr cm | rain mn cm | humidity % | barometer mb |
| 20260509162306 | 14 | 47 | 1.6 | 4.8 | 0.00 | 0.08 | 0.08 | 81 | 1013.2 |
| 20260509161759 | 14 | 165 | 1.6 | 3.2 | 0.00 | 0.08 | 0.08 | 78 | 1013.4 |
| 20260509161255 | 14 | 165 | 1.6 | 3.2 | 0.00 | 0.08 | 0.08 | 79 | 1013.4 |
| 20260509160750 | 15 | 166 | 1.6 | 1.6 | 0.00 | 0.08 | 0.08 | 78 | 1013.6 |
| 20260509160247 | 14 | 166 | 0.0 | 0.0 | 0.00 | 0.08 | 0.08 | 78 | 1013.7 |
| 20260509155742 | 14 | 166 | 0.0 | 1.6 | 0.00 | 0.08 | 0.08 | 78 | 1013.6 |
| 20260509155239 | 14 | 166 | 1.6 | 3.2 | 0.00 | 0.08 | 0.08 | 79 | 1013.4 |
| 20260509154735 | 14 | 157 | 1.6 | 3.2 | 0.00 | 0.08 | 0.08 | 77 | 1013.2 |
| 20260509154232 | 14 | 147 | 1.6 | 3.2 | 0.00 | 0.08 | 0.08 | 78 | 1013.3 |
| 20260509153730 | 14 | 147 | 0.0 | 1.6 | 0.00 | 0.08 | 0.08 | 81 | 1013.3 |
| 20260509153225 | 14 | 149 | 3.2 | 3.2 | 0.00 | 0.08 | 0.08 | 79 | 1013.3 |
| 20260509152722 | 14 | 53 | 1.6 | 3.2 | 0.00 | 0.08 | 0.08 | 79 | 1013.4 |
| 20260509152219 | 14 | 162 | 1.6 | 3.2 | 0.00 | 0.08 | 0.08 | 80 | 1013.3 |
| 20260509151715 | 13 | 17 | 0.0 | 1.6 | 0.00 | 0.08 | 0.08 | 81 | 1013.5 |
| 20260509151212 | 13 | 104 | 1.6 | 6.4 | 0.00 | 0.08 | 0.08 | 81 | 1013.4 |
| 20260509150710 | 13 | 31 | 1.6 | 3.2 | 0.00 | 0.08 | 0.08 | 82 | 1013.4 |
| 20260509150208 | 13 | 87 | 3.2 | 6.4 | 0.00 | 0.08 | 0.08 | 81 | 1013.4 |
| 20260509145704 | 13 | 52 | 0.0 | 3.2 | 0.00 | 0.08 | 0.08 | 82 | 1013.6 |
| 20260509145200 | 13 | 25 | 3.2 | 4.8 | 0.00 | 0.08 | 0.08 | 85 | 1013.6 |
| 20260509144656 | 13 | 30 | 6.4 | 9.7 | 0.00 | 0.08 | 0.08 | 87 | 1013.6 |
| 20260509144154 | 13 | 55 | 1.6 | 3.2 | 0.00 | 0.08 | 0.08 | 85 | 1013.7 |
| 20260509143651 | 12 | 22 | 0.0 | 3.2 | 0.00 | 0.08 | 0.08 | 88 | 1013.7 |
| 20260509143148 | 12 | 26 | 1.6 | 4.8 | 0.00 | 0.08 | 0.08 | 89 | 1013.6 |
| 20260509142643 | 12 | 34 | 0.0 | 1.6 | 0.00 | 0.08 | 0.08 | 89 | 1013.4 |
| 20260509142140 | 12 | 34 | 1.6 | 3.2 | 0.00 | 0.08 | 0.08 | 90 | 1013.8 |
| 20260509141636 | 12 | 34 | 1.6 | 3.2 | 0.00 | 0.08 | 0.08 | 91 | 1013.7 |
| 20260509141132 | 11 | 34 | 0.0 | 3.2 | 0.00 | 0.08 | 0.08 | 92 | 1013.6 |
| 20260509140629 | 11 | 34 | 0.0 | 1.6 | 0.00 | 0.08 | 0.08 | 93 | 1013.6 |
| 20260509140127 | 11 | 34 | 0.0 | 3.2 | 0.00 | 0.08 | 0.08 | 94 | 1013.4 |
| 20260509135624 | 11 | 34 | 0.0 | 0.0 | 0.00 | 0.08 | 0.08 | 94 | 1013.4 |
| 20260509135123 | 11 | 34 | 1.6 | 3.2 | 0.00 | 0.08 | 0.08 | 94 | 1013.3 |
| 20260509134619 | 11 | 34 | 0.0 | 1.6 | 0.00 | 0.08 | 0.08 | 94 | 1013.3 |
| 20260509134116 | 11 | 34 | 3.2 | 4.8 | 0.00 | 0.08 | 0.08 | 94 | 1013.2 |
| 20260509133614 | 11 | 35 | 0.0 | 3.2 | 0.00 | 0.08 | 0.08 | 94 | 1013.5 |
| 20260509133111 | 11 | 35 | 0.0 | 1.6 | 0.00 | 0.08 | 0.08 | 94 | 1013.6 |
| 20260509132609 | 11 | 34 | 1.6 | 3.2 | 0.00 | 0.08 | 0.08 | 95 | 1013.2 |
| 20260509132107 | 11 | 35 | 3.2 | 3.2 | 0.13 | 0.08 | 0.08 | 95 | 1013.3 |
| 20260509131602 | 11 | 168 | 0.0 | 1.6 | 0.13 | 0.08 | 0.08 | 95 | 1013.5 |
| 20260509131100 | 11 | 168 | 0.0 | 0.0 | 0.00 | 0.05 | 0.05 | 95 | 1013.6 |
| 20260509130555 | 11 | 168 | 0.0 | 0.0 | 0.00 | 0.05 | 0.05 | 95 | 1013.5 |
| 20260509130052 | 11 | 168 | 1.6 | 1.6 | 0.00 | 0.05 | 0.05 | 94 | 1013.5 |
| 20260509125549 | 11 | 28 | 0.0 | 0.0 | 0.00 | 0.05 | 0.05 | 94 | 1013.5 |
| 20260509125045 | 11 | 28 | 0.0 | 0.0 | 0.00 | 0.05 | 0.05 | 93 | 1013.4 |
| 20260509124542 | 11 | 28 | 1.6 | 1.6 | 0.00 | 0.05 | 0.05 | 93 | 1013.3 |
| 20260509124039 | 11 | 179 | 0.0 | 0.0 | 0.00 | 0.05 | 0.05 | 93 | 1013.4 |
| 20260509123537 | 11 | 179 | 1.6 | 3.2 | 0.00 | 0.05 | 0.05 | 93 | 1013.2 |
| 20260509123033 | 11 | 177 | 0.0 | 1.6 | 0.18 | 0.05 | 0.05 | 93 | 1013.3 |
| 20260509122529 | 11 | 177 | 1.6 | 4.8 | 0.18 | 0.05 | 0.05 | 92 | 1013.3 |
| 20260509122027 | 11 | 346 | 1.6 | 1.6 | 0.00 | 0.03 | 0.03 | 91 | 1013.4 |
| 20260509121523 | 11 | 346 | 3.2 | 3.2 | 0.00 | 0.03 | 0.03 | 89 | 1013.2 |
| 20260509121021 | 11 | 46 | 4.8 | 4.8 | 0.13 | 0.03 | 0.03 | 88 | 1013.2 |
| 20260509120519 | 11 | 64 | 0.0 | 0.0 | 0.13 | 0.03 | 0.03 | 90 | 1013.5 |
| 20260509120012 | 11 | 127 | 0.0 | 0.0 | 0.00 | 0.00 | 0.00 | 89 | 1013.4 |
| 20260509115509 | 11 | 71 | 0.0 | 0.0 | 0.00 | 0.00 | 0.00 | 87 | 1013.5 |
| 20260509115006 | 11 | 24 | 0.0 | 1.6 | 0.00 | 0.00 | 0.00 | 85 | 1013.3 |
| 20260509114504 | 11 | 38 | 3.2 | 3.2 | 0.00 | 0.00 | 0.00 | 84 | 1013.3 |
| 20260509114003 | 11 | 342 | 0.0 | 0.0 | 0.00 | 0.00 | 0.00 | 83 | 1013.4 |
| 20260509113500 | 11 | 336 | 0.0 | 1.6 | 0.00 | 0.00 | 0.00 | 85 | 1013.7 |
| 20260509112957 | 11 | 346 | 1.6 | 3.2 | 0.00 | 0.00 | 0.00 | 84 | 1013.5 |
| 20260509112454 | 11 | 53 | 0.0 | 0.0 | 0.00 | 0.00 | 0.00 | 84 | 1013.5 |
| 20260509111950 | 11 | 72 | 0.0 | 0.0 | 0.00 | 0.00 | 0.00 | 84 | 1013.4 |
| 20260509111448 | 11 | 85 | 0.0 | 0.0 | 0.00 | 0.00 | 0.00 | 84 | 1013.3 |
| 20260509110946 | 11 | 51 | 3.2 | 4.8 | 0.00 | 0.00 | 0.00 | 84 | 1013.2 |
| 20260509110442 | 11 | 53 | 3.2 | 4.8 | 0.00 | 0.00 | 0.00 | 82 | 1013.3 |
| 20260509105939 | 11 | 280 | 3.2 | 3.2 | 0.00 | 0.00 | 0.00 | 81 | 1013.4 |
| 20260509105438 | 11 | 16 | 1.6 | 3.2 | 0.00 | 0.00 | 0.00 | 83 | 1013.4 |
| 20260509104935 | 11 | 16 | 0.0 | 0.0 | 0.00 | 0.00 | 0.00 | 79 | 1013.2 |
| 20260509104431 | 11 | 16 | 0.0 | 0.0 | 0.00 | 0.00 | 0.00 | 79 | 1013.1 |
| 20260509103928 | 11 | 16 | 0.0 | 1.6 | 0.00 | 0.00 | 0.00 | 80 | 1013.0 |
| 20260509103426 | 11 | 83 | 0.0 | 0.0 | 0.00 | 0.00 | 0.00 | 76 | 1012.9 |
| 20260509102924 | 11 | 83 | 1.6 | 1.6 | 0.00 | 0.00 | 0.00 | 76 | 1013.0 |
| 20260509102421 | 11 | 168 | 6.4 | 6.4 | 0.00 | 0.00 | 0.00 | 77 | 1013.0 |
| 20260509101917 | 11 | 93 | 3.2 | 3.2 | 0.00 | 0.00 | 0.00 | 78 | 1012.7 |
| 20260509101414 | 11 | 55 | 4.8 | 9.7 | 0.00 | 0.00 | 0.00 | 78 | 1012.5 |
| 20260509100911 | 11 | 28 | 3.2 | 3.2 | 0.00 | 0.00 | 0.00 | 81 | 1012.5 |
| 20260509100408 | 10 | 278 | 0.0 | 1.6 | 0.00 | 0.00 | 0.00 | 83 | 1012.6 |
| 20260509095905 | 11 | 278 | 1.6 | 1.6 | 0.00 | 0.00 | 0.00 | 85 | 1012.7 |
| 20260509095402 | 11 | 278 | 0.0 | 1.6 | 0.00 | 0.00 | 0.00 | 84 | 1012.7 |
| 20260509094859 | 11 | 278 | 0.0 | 0.0 | 0.00 | 0.00 | 0.00 | 84 | 1012.6 |
| 20260509094355 | 11 | 278 | 0.0 | 0.0 | 0.00 | 0.00 | 0.00 | 84 | 1012.6 |
| 20260509093854 | 11 | 278 | 0.0 | 1.6 | 0.00 | 0.00 | 0.00 | 85 | 1012.6 |
| 20260509093350 | 11 | 278 | 0.0 | 0.0 | 0.00 | 0.00 | 0.00 | 84 | 1012.5 |
| 20260509092849 | 11 | 278 | 0.0 | 0.0 | 0.00 | 0.00 | 0.00 | 83 | 1012.5 |
| 20260509092346 | 11 | 278 | 0.0 | 0.0 | 0.00 | 0.00 | 0.00 | 83 | 1012.7 |
| 20260509091844 | 11 | 278 | 0.0 | 0.0 | 0.00 | 0.00 | 0.00 | 84 | 1012.7 |
| 20260509091341 | 11 | 278 | 0.0 | 0.0 | 0.00 | 0.00 | 0.00 | 83 | 1012.5 |
| 20260509090838 | 11 | 278 | 0.0 | 0.0 | 0.00 | 0.00 | 0.00 | 81 | 1012.5 |
| 20260509090335 | 11 | 278 | 0.0 | 0.0 | 0.00 | 0.00 | 0.00 | 80 | 1012.4 |
| 20260509085832 | 11 | 278 | 0.0 | 1.6 | 0.00 | 0.00 | 0.00 | 79 | 1012.5 |
| 20260509085329 | 11 | 278 | 0.0 | 1.6 | 0.00 | 0.00 | 0.00 | 79 | 1012.4 |
| 20260509084826 | 11 | 278 | 0.0 | 0.0 | 0.00 | 0.00 | 0.00 | 78 | 1012.5 |
| 20260509084323 | 11 | 278 | 0.0 | 0.0 | 0.00 | 0.00 | 0.00 | 78 | 1012.6 |
| 20260509083821 | 11 | 278 | 0.0 | 0.0 | 0.00 | 0.00 | 0.00 | 77 | 1012.5 |
| 20260509083318 | 11 | 278 | 0.0 | 3.2 | 0.00 | 0.00 | 0.00 | 79 | 1012.6 |
| 20260509082814 | 11 | 278 | 0.0 | 0.0 | 0.00 | 0.00 | 0.00 | 77 | 1012.6 |
| 20260509082311 | 11 | 279 | 6.4 | 6.4 | 0.00 | 0.00 | 0.00 | 79 | 1012.4 |
| 20260509081809 | 11 | 14 | 1.6 | 3.2 | 0.00 | 0.00 | 0.00 | 79 | 1012.6 |
| 20260509081305 | 11 | 353 | 0.0 | 1.6 | 0.00 | 0.00 | 0.00 | 77 | 1012.7 |
| 20260509080803 | 11 | 306 | 1.6 | 1.6 | 0.00 | 0.00 | 0.00 | 78 | 1012.6 |
| 20260509080301 | 11 | 39 | 0.0 | 1.6 | 0.00 | 0.00 | 0.00 | 79 | 1012.5 |
| 20260509075759 | 11 | 31 | 3.2 | 3.2 | 0.00 | 0.00 | 0.00 | 80 | 1012.7 |
| 20260509075256 | 12 | 35 | 0.0 | 1.6 | 0.00 | 0.00 | 0.00 | 76 | 1012.7 |
| 20260509074753 | 11 | 39 | 1.6 | 3.2 | 0.00 | 0.00 | 0.00 | 76 | 1012.7 |
| 20260509074251 | 11 | 351 | 0.0 | 1.6 | 0.00 | 0.00 | 0.00 | 79 | 1012.8 |
| 20260509073746 | 11 | 341 | 0.0 | 0.0 | 0.00 | 0.00 | 0.00 | 82 | 1012.9 |
| 20260509073243 | 11 | 347 | 0.0 | 1.6 | 0.00 | 0.00 | 0.00 | 81 | 1012.8 |
| 20260509072739 | 11 | 315 | 1.6 | 1.6 | 0.00 | 0.00 | 0.00 | 81 | 1012.9 |
| 20260509072236 | 10 | 24 | 0.0 | 1.6 | 0.00 | 0.00 | 0.00 | 83 | 1012.6 |
| 20260509071733 | 10 | 29 | 1.6 | 1.6 | 0.00 | 0.00 | 0.00 | 85 | 1012.7 |
| 20260509071230 | 10 | 31 | 1.6 | 6.4 | 0.00 | 0.00 | 0.00 | 83 | 1012.5 |
| 20260509070727 | 10 | 323 | 1.6 | 1.6 | 0.00 | 0.00 | 0.00 | 82 | 1012.8 |
| 20260509070224 | 10 | 318 | 0.0 | 0.0 | 0.00 | 0.00 | 0.00 | 84 | 1012.6 |
| 20260509065720 | 10 | 318 | 0.0 | 0.0 | 0.00 | 0.00 | 0.00 | 81 | 1012.5 |
| 20260509065216 | 10 | 318 | 0.0 | 0.0 | 0.00 | 0.00 | 0.00 | 83 | 1012.8 |
| 20260509064713 | 10 | 318 | 0.0 | 0.0 | 0.00 | 0.00 | 0.00 | 85 | 1012.6 |
| 20260509064211 | 10 | 318 | 0.0 | 0.0 | 0.00 | 0.00 | 0.00 | 85 | 1012.7 |
| 20260509063708 | 10 | 318 | 0.0 | 0.0 | 0.00 | 0.00 | 0.00 | 85 | 1012.8 |
| 20260509063204 | 10 | 318 | 0.0 | 0.0 | 0.00 | 0.00 | 0.00 | 85 | 1012.6 |
| 20260509062701 | 10 | 318 | 0.0 | 0.0 | 0.00 | 0.00 | 0.00 | 84 | 1012.8 |
| 20260509062158 | 10 | 318 | 0.0 | 0.0 | 0.00 | 0.00 | 0.00 | 86 | 1012.8 |
| 20260509061655 | 10 | 318 | 0.0 | 0.0 | 0.00 | 0.00 | 0.00 | 85 | 1013.1 |
| 20260509061153 | 10 | 318 | 0.0 | 0.0 | 0.00 | 0.00 | 0.00 | 84 | 1013.2 |
| 20260509060650 | 10 | 318 | 0.0 | 0.0 | 0.00 | 0.00 | 0.00 | 84 | 1013.1 |
| 20260509060146 | 10 | 318 | 0.0 | 0.0 | 0.00 | 0.00 | 0.00 | 84 | 1013.0 |
| 20260509055642 | 10 | 318 | 0.0 | 0.0 | 0.00 | 0.00 | 0.00 | 84 | 1013.2 |
| 20260509055138 | 10 | 318 | 0.0 | 0.0 | 0.00 | 0.00 | 0.00 | 85 | 1013.2 |
| 20260509054635 | 10 | 318 | 0.0 | 0.0 | 0.00 | 0.00 | 0.00 | 86 | 1013.2 |
| 20260509054132 | 10 | 318 | 0.0 | 0.0 | 0.00 | 0.00 | 0.00 | 83 | 1013.1 |
| 20260509053631 | 10 | 318 | 0.0 | 0.0 | 0.00 | 0.00 | 0.00 | 83 | 1013.4 |
| 20260509053127 | 11 | 318 | 0.0 | 0.0 | 0.00 | 0.00 | 0.00 | 84 | 1013.3 |
| 20260509052625 | 11 | 318 | 0.0 | 0.0 | 0.00 | 0.00 | 0.00 | 82 | 1013.3 |
| 20260509052122 | 11 | 318 | 0.0 | 0.0 | 0.00 | 0.00 | 0.00 | 84 | 1013.3 |
| 20260509051620 | 11 | 318 | 0.0 | 0.0 | 0.00 | 0.00 | 0.00 | 83 | 1013.3 |
| 20260509051117 | 11 | 318 | 0.0 | 0.0 | 0.00 | 0.00 | 0.00 | 84 | 1013.5 |
| 20260509050614 | 11 | 318 | 0.0 | 0.0 | 0.00 | 0.00 | 0.00 | 83 | 1013.3 |
| 20260509050110 | 11 | 291 | 0.0 | 0.0 | 0.00 | 0.00 | 0.00 | 83 | 1013.3 |
| 20260509045608 | 11 | 291 | 0.0 | 1.6 | 0.00 | 0.00 | 0.00 | 83 | 1013.3 |
| 20260509045105 | 11 | 291 | 1.6 | 1.6 | 0.00 | 0.00 | 0.00 | 81 | 1013.1 |
| 20260509044602 | 11 | 291 | 1.6 | 1.6 | 0.00 | 0.00 | 0.00 | 79 | 1013.3 |
| 20260509044059 | 11 | 297 | 0.0 | 1.6 | 0.00 | 0.00 | 0.00 | 82 | 1013.2 |
| 20260509043555 | 11 | 297 | 0.0 | 0.0 | 0.00 | 0.00 | 0.00 | 81 | 1013.3 |
| 20260509043051 | 11 | 297 | 0.0 | 0.0 | 0.00 | 0.00 | 0.00 | 82 | 1013.1 |
| 20260509042548 | 11 | 297 | 0.0 | 1.6 | 0.00 | 0.00 | 0.00 | 76 | 1013.2 |
| 20260509042044 | 11 | 297 | 0.0 | 1.6 | 0.00 | 0.00 | 0.00 | 77 | 1013.1 |
| 20260509041541 | 11 | 303 | 1.6 | 1.6 | 0.00 | 0.00 | 0.00 | 77 | 1013.3 |
| 20260509041039 | 11 | 343 | 0.0 | 0.0 | 0.00 | 0.00 | 0.00 | 77 | 1013.3 |
| 20260509040537 | 11 | 343 | 0.0 | 0.0 | 0.00 | 0.00 | 0.00 | 78 | 1013.2 |
| 20260509040033 | 11 | 343 | 0.0 | 0.0 | 0.00 | 0.00 | 0.00 | 76 | 1013.5 |
| 20260509035530 | 11 | 343 | 0.0 | 0.0 | 0.00 | 0.00 | 0.00 | 77 | 1013.6 |
| 20260509035027 | 11 | 343 | 0.0 | 0.0 | 0.00 | 0.00 | 0.00 | 81 | 1013.5 |
| 20260509034525 | 11 | 343 | 0.0 | 0.0 | 0.00 | 0.00 | 0.00 | 79 | 1013.6 |
| 20260509034022 | 11 | 343 | 0.0 | 0.0 | 0.00 | 0.00 | 0.00 | 79 | 1013.7 |
| 20260509033519 | 11 | 341 | 0.0 | 0.0 | 0.00 | 0.00 | 0.00 | 78 | 1013.6 |
| 20260509033016 | 11 | 340 | 0.0 | 0.0 | 0.00 | 0.00 | 0.00 | 81 | 1013.5 |
| 20260509032513 | 11 | 340 | 0.0 | 0.0 | 0.00 | 0.00 | 0.00 | 79 | 1013.5 |
| 20260509032010 | 11 | 324 | 0.0 | 0.0 | 0.00 | 0.00 | 0.00 | 78 | 1013.6 |
| 20260509031507 | 11 | 324 | 0.0 | 0.0 | 0.00 | 0.00 | 0.00 | 79 | 1013.8 |
| 20260509031004 | 12 | 324 | 0.0 | 0.0 | 0.00 | 0.00 | 0.00 | 78 | 1013.8 |
| 20260509030502 | 12 | 324 | 0.0 | 0.0 | 0.00 | 0.00 | 0.00 | 78 | 1013.6 |
| 20260509025959 | 12 | 324 | 0.0 | 0.0 | 0.00 | 0.00 | 0.00 | 76 | 1013.7 |
| 20260509025454 | 12 | 29 | 0.0 | 1.6 | 0.00 | 0.00 | 0.00 | 75 | 1013.7 |
| 20260509024949 | 13 | 274 | 3.2 | 4.8 | 0.00 | 0.00 | 0.00 | 75 | 1013.9 |
| 20260509024446 | 13 | 290 | 0.0 | 1.6 | 0.00 | 0.00 | 0.00 | 73 | 1013.7 |
| 20260509023943 | 13 | 290 | 0.0 | 0.0 | 0.00 | 0.00 | 0.00 | 70 | 1013.8 |
| 20260509023440 | 13 | 290 | 0.0 | 3.2 | 0.00 | 0.00 | 0.00 | 73 | 1013.8 |
| 20260509022937 | 13 | 290 | 1.6 | 1.6 | 0.00 | 0.00 | 0.00 | 73 | 1013.9 |
| 20260509022434 | 13 | 290 | 0.0 | 0.0 | 0.00 | 0.00 | 0.00 | 76 | 1013.9 |
| 20260509021931 | 13 | 290 | 0.0 | 0.0 | 0.00 | 0.00 | 0.00 | 67 | 1013.9 |
| 20260509021428 | 13 | 290 | 0.0 | 0.0 | 0.00 | 0.00 | 0.00 | 69 | 1013.9 |
| 20260509020926 | 13 | 290 | 0.0 | 0.0 | 0.00 | 0.00 | 0.00 | 72 | 1014.0 |
| 20260509020424 | 13 | 290 | 0.0 | 0.0 | 0.00 | 0.00 | 0.00 | 72 | 1013.9 |
| 20260509015920 | 13 | 290 | 0.0 | 0.0 | 0.00 | 0.00 | 0.00 | 68 | 1014.0 |
| 20260509015420 | 13 | 290 | 0.0 | 0.0 | 0.00 | 0.00 | 0.00 | 70 | 1014.0 |
| 20260509014915 | 13 | 290 | 0.0 | 0.0 | 0.00 | 0.00 | 0.00 | 68 | 1013.9 |
| 20260509014412 | 13 | 290 | 0.0 | 0.0 | 0.00 | 0.00 | 0.00 | 70 | 1014.0 |
| 20260509013909 | 13 | 290 | 0.0 | 0.0 | 0.00 | 0.00 | 0.00 | 68 | 1013.7 |
| 20260509013406 | 13 | 290 | 0.0 | 0.0 | 0.00 | 0.00 | 0.00 | 69 | 1013.8 |
| 20260509012901 | 13 | 290 | 1.6 | 3.2 | 0.00 | 0.00 | 0.00 | 69 | 1013.8 |
| 20260509012358 | 13 | 292 | 0.0 | 0.0 | 0.00 | 0.00 | 0.00 | 67 | 1014.0 |
| 20260509011855 | 14 | 292 | 0.0 | 0.0 | 0.00 | 0.00 | 0.00 | 68 | 1013.6 |
| 20260509011353 | 14 | 292 | 0.0 | 1.6 | 0.00 | 0.00 | 0.00 | 65 | 1013.6 |
| 20260509010851 | 13 | 292 | 0.0 | 0.0 | 0.00 | 0.00 | 0.00 | 70 | 1013.6 |
| 20260509010348 | 13 | 292 | 0.0 | 0.0 | 0.00 | 0.00 | 0.00 | 70 | 1013.4 |
| 20260509005845 | 14 | 292 | 0.0 | 0.0 | 0.00 | 0.00 | 0.00 | 71 | 1013.5 |
| 20260509005343 | 14 | 292 | 0.0 | 0.0 | 0.00 | 0.00 | 0.00 | 64 | 1013.7 |
| 20260509004843 | 14 | 292 | 0.0 | 0.0 | 0.00 | 0.00 | 0.00 | 67 | 1013.7 |
| 20260509004339 | 14 | 292 | 0.0 | 1.6 | 0.00 | 0.00 | 0.00 | 66 | 1013.6 |
| 20260509003837 | 14 | 316 | 0.0 | 0.0 | 0.00 | 0.00 | 0.00 | 61 | 1013.6 |
| 20260509003335 | 14 | 318 | 0.0 | 0.0 | 0.00 | 0.00 | 0.00 | 64 | 1013.5 |
| 20260509002832 | 14 | 318 | 0.0 | 0.0 | 0.00 | 0.00 | 0.00 | 69 | 1013.4 |
| 20260509002329 | 15 | 318 | 0.0 | 0.0 | 0.00 | 0.00 | 0.00 | 68 | 1013.5 |
| 20260509001827 | 15 | 318 | 0.0 | 0.0 | 0.00 | 0.00 | 0.00 | 65 | 1013.4 |
| 20260509001322 | 15 | 318 | 0.0 | 0.0 | 0.00 | 0.00 | 0.00 | 64 | 1013.3 |
| 20260509000820 | 16 | 317 | 0.0 | 0.0 | 0.00 | 0.00 | 0.00 | 60 | 1013.2 |
| 20260509000318 | 16 | 317 | 0.0 | 0.0 | 0.00 | 0.00 | 0.00 | 61 | 1013.3 |
| 20260508235814 | 16 | 317 | 0.0 | 0.0 | 0.00 | 0.00 | 0.00 | 58 | 1013.3 |
| 20260508235311 | 17 | 317 | 0.0 | 0.0 | 0.00 | 0.00 | 0.00 | 57 | 1013.0 |
| 20260508234808 | 17 | 317 | 0.0 | 0.0 | 0.00 | 0.00 | 0.00 | 54 | 1013.2 |
| 20260508234259 | 18 | 317 | 0.0 | 0.0 | 0.00 | 0.00 | 0.00 | 52 | 1013.2 |
| 20260508233758 | 17 | 317 | 0.0 | 0.0 | 0.00 | 0.00 | 0.00 | 50 | 1013.0 |
| 20260508233257 | 17 | 317 | 1.6 | 3.2 | 0.00 | 0.00 | 0.00 | 51 | 1013.2 |
| 20260508232753 | 18 | 353 | 1.6 | 1.6 | 0.00 | 0.00 | 0.00 | 46 | 1013.2 |
| 20260508232250 | 18 | 329 | 0.0 | 1.6 | 0.00 | 0.00 | 0.00 | 40 | 1013.1 |
| 20260508231748 | 19 | 48 | 0.0 | 0.0 | 0.00 | 0.00 | 0.00 | 42 | 1013.1 |
| 20260508231244 | 19 | 40 | 1.6 | 1.6 | 0.00 | 0.00 | 0.00 | 44 | 1013.1 |
| 20260508230741 | 19 | 26 | 3.2 | 3.2 | 0.00 | 0.00 | 0.00 | 49 | 1013.2 |
| 20260508230237 | 19 | 47 | 4.8 | 4.8 | 0.00 | 0.00 | 0.00 | 38 | 1013.0 |
| 20260508225735 | 19 | 332 | 1.6 | 1.6 | 0.00 | 0.00 | 0.00 | 39 | 1013.1 |
| 20260508225231 | 19 | 275 | 1.6 | 4.8 | 0.00 | 0.00 | 0.00 | 39 | 1013.1 |
| 20260508224729 | 19 | 295 | 0.0 | 3.2 | 0.00 | 0.00 | 0.00 | 40 | 1013.2 |
| 20260508224227 | 19 | 346 | 1.6 | 3.2 | 0.00 | 0.00 | 0.00 | 41 | 1013.2 |
| 20260508223724 | 19 | 309 | 3.2 | 6.4 | 0.00 | 0.00 | 0.00 | 39 | 1013.4 |
| 20260508223221 | 19 | 293 | 3.2 | 4.8 | 0.00 | 0.00 | 0.00 | 39 | 1013.3 |
| 20260508222719 | 19 | 339 | 3.2 | 4.8 | 0.00 | 0.00 | 0.00 | 39 | 1013.3 |
| 20260508222216 | 19 | 10 | 1.6 | 4.8 | 0.00 | 0.00 | 0.00 | 39 | 1013.2 |
| 20260508221712 | 19 | 312 | 3.2 | 6.4 | 0.00 | 0.00 | 0.00 | 39 | 1013.4 |
| 20260508221208 | 19 | 324 | 1.6 | 3.2 | 0.00 | 0.00 | 0.00 | 39 | 1013.2 |
| 20260508220704 | 19 | 334 | 6.4 | 6.4 | 0.00 | 0.00 | 0.00 | 38 | 1013.2 |
| 20260508220201 | 19 | 285 | 4.8 | 6.4 | 0.00 | 0.00 | 0.00 | 39 | 1013.2 |
| 20260508215657 | 20 | 321 | 6.4 | 12.9 | 0.00 | 0.00 | 0.00 | 37 | 1013.3 |
| 20260508215154 | 20 | 325 | 6.4 | 9.7 | 0.00 | 0.00 | 0.00 | 38 | 1013.2 |
| 20260508214651 | 20 | 299 | 6.4 | 12.9 | 0.00 | 0.00 | 0.00 | 38 | 1013.3 |
| 20260508214149 | 19 | 343 | 6.4 | 9.7 | 0.00 | 0.00 | 0.00 | 37 | 1013.5 |
| 20260508213645 | 19 | 324 | 1.6 | 4.8 | 0.00 | 0.00 | 0.00 | 37 | 1013.3 |
| 20260508213141 | 18 | 296 | 3.2 | 4.8 | 0.00 | 0.00 | 0.00 | 39 | 1013.4 |
| 20260508212638 | 18 | 298 | 3.2 | 11.3 | 0.00 | 0.00 | 0.00 | 38 | 1013.6 |
| 20260508212134 | 18 | 265 | 9.7 | 12.9 | 0.00 | 0.00 | 0.00 | 36 | 1013.6 |
| 20260508211634 | 18 | 330 | 4.8 | 11.3 | 0.00 | 0.00 | 0.00 | 37 | 1013.7 |
| 20260508211131 | 18 | 335 | 3.2 | 9.7 | 0.00 | 0.00 | 0.00 | 37 | 1013.6 |
| 20260508210628 | 18 | 281 | 11.3 | 12.9 | 0.00 | 0.00 | 0.00 | 37 | 1013.6 |
| 20260508210126 | 18 | 234 | 1.6 | 9.7 | 0.00 | 0.00 | 0.00 | 37 | 1013.5 |
| 20260508205623 | 18 | 288 | 6.4 | 9.7 | 0.00 | 0.00 | 0.00 | 37 | 1013.4 |
| 20260508205119 | 18 | 331 | 6.4 | 9.7 | 0.00 | 0.00 | 0.00 | 35 | 1013.2 |
| 20260508204615 | 19 | 302 | 1.6 | 4.8 | 0.00 | 0.00 | 0.00 | 36 | 1013.5 |
| 20260508204111 | 18 | 339 | 6.4 | 11.3 | 0.00 | 0.00 | 0.00 | 35 | 1013.4 |
| 20260508203608 | 18 | 299 | 4.8 | 9.7 | 0.00 | 0.00 | 0.00 | 37 | 1013.8 |
| 20260508203104 | 18 | 284 | 9.7 | 16.1 | 0.00 | 0.00 | 0.00 | 36 | 1013.8 |
| 20260508202600 | 19 | 307 | 4.8 | 16.1 | 0.00 | 0.00 | 0.00 | 37 | 1013.8 |
| 20260508202058 | 19 | 280 | 6.4 | 11.3 | 0.00 | 0.00 | 0.00 | 36 | 1013.8 |
| 20260508201554 | 19 | 277 | 4.8 | 11.3 | 0.00 | 0.00 | 0.00 | 36 | 1013.9 |
| 20260508201051 | 19 | 324 | 17.7 | 22.5 | 0.00 | 0.00 | 0.00 | 34 | 1013.8 |
| 20260508200548 | 19 | 307 | 6.4 | 11.3 | 0.00 | 0.00 | 0.00 | 35 | 1013.9 |
| 20260508200043 | 20 | 290 | 6.4 | 11.3 | 0.00 | 0.00 | 0.00 | 35 | 1013.8 |
| 20260508195540 | 20 | 276 | 16.1 | 20.9 | 0.00 | 0.00 | 0.00 | 33 | 1013.7 |
| 20260508195036 | 20 | 271 | 6.4 | 16.1 | 0.00 | 0.00 | 0.00 | 34 | 1013.5 |
| 20260508194534 | 20 | 311 | 11.3 | 14.5 | 0.00 | 0.00 | 0.00 | 33 | 1013.7 |
| 20260508194031 | 20 | 295 | 12.9 | 16.1 | 0.00 | 0.00 | 0.00 | 32 | 1013.8 |
| 20260508193527 | 20 | 288 | 14.5 | 22.5 | 0.00 | 0.00 | 0.00 | 32 | 1013.9 |
| 20260508193024 | 21 | 258 | 11.3 | 14.5 | 0.00 | 0.00 | 0.00 | 32 | 1013.9 |
| 20260508192521 | 20 | 274 | 9.7 | 24.1 | 0.00 | 0.00 | 0.00 | 31 | 1013.9 |
| 20260508192018 | 20 | 288 | 3.2 | 20.9 | 0.00 | 0.00 | 0.00 | 34 | 1013.7 |
| 20260508191515 | 20 | 286 | 16.1 | 20.9 | 0.00 | 0.00 | 0.00 | 32 | 1014.1 |
| 20260508191011 | 20 | 301 | 8.0 | 14.5 | 0.00 | 0.00 | 0.00 | 34 | 1014.1 |
| 20260508190509 | 19 | 269 | 8.0 | 16.1 | 0.00 | 0.00 | 0.00 | 33 | 1014.4 |
| 20260508190005 | 19 | 278 | 4.8 | 16.1 | 0.00 | 0.00 | 0.00 | 35 | 1014.3 |
| 20260508185502 | 19 | 298 | 4.8 | 12.9 | 0.00 | 0.00 | 0.00 | 33 | 1014.4 |
| 20260508185000 | 19 | 312 | 9.7 | 16.1 | 0.00 | 0.00 | 0.00 | 33 | 1014.4 |
| 20260508184457 | 20 | 233 | 8.0 | 22.5 | 0.00 | 0.00 | 0.00 | 31 | 1014.6 |
| 20260508183953 | 20 | 293 | 9.7 | 20.9 | 0.00 | 0.00 | 0.00 | 31 | 1014.3 |
| 20260508183450 | 20 | 283 | 12.9 | 20.9 | 0.00 | 0.00 | 0.00 | 33 | 1014.5 |
| 20260508182945 | 20 | 331 | 9.7 | 22.5 | 0.00 | 0.00 | 0.00 | 32 | 1014.6 |
| 20260508182443 | 20 | 316 | 9.7 | 12.9 | 0.00 | 0.00 | 0.00 | 32 | 1014.4 |
| 20260508181943 | 20 | 272 | 14.5 | 16.1 | 0.00 | 0.00 | 0.00 | 33 | 1014.5 |
| 20260508181440 | 19 | 282 | 12.9 | 16.1 | 0.00 | 0.00 | 0.00 | 33 | 1014.6 |
| 20260508180938 | 19 | 304 | 4.8 | 14.5 | 0.00 | 0.00 | 0.00 | 35 | 1014.6 |
| 20260508180435 | 20 | 328 | 6.4 | 12.9 | 0.00 | 0.00 | 0.00 | 32 | 1014.7 |
| 20260508175930 | 19 | 255 | 8.0 | 9.7 | 0.00 | 0.00 | 0.00 | 33 | 1014.7 |
| 20260508175427 | 20 | 284 | 6.4 | 9.7 | 0.00 | 0.00 | 0.00 | 33 | 1014.9 |
| 20260508174925 | 19 | 284 | 8.0 | 20.9 | 0.00 | 0.00 | 0.00 | 39 | 1015.1 |
| 20260508174423 | 18 | 87 | 8.0 | 22.5 | 0.00 | 0.00 | 0.00 | 33 | 1015.1 |
| 20260508173919 | 19 | 277 | 17.7 | 22.5 | 0.00 | 0.00 | 0.00 | 34 | 1015.3 |
| 20260508173416 | 18 | 261 | 1.6 | 6.4 | 0.00 | 0.00 | 0.00 | 37 | 1015.2 |
| 20260508172912 | 18 | 287 | 9.7 | 16.1 | 0.00 | 0.00 | 0.00 | 35 | 1015.1 |
| 20260508172410 | 19 | 256 | 19.3 | 24.1 | 0.00 | 0.00 | 0.00 | 35 | 1015.0 |
| 20260508171905 | 18 | 238 | 8.0 | 20.9 | 0.00 | 0.00 | 0.00 | 36 | 1015.1 |
| 20260508171402 | 18 | 333 | 11.3 | 16.1 | 0.00 | 0.00 | 0.00 | 37 | 1015.3 |
| 20260508170859 | 18 | 286 | 12.9 | 22.5 | 0.00 | 0.00 | 0.00 | 36 | 1015.4 |
| 20260508170357 | 18 | 292 | 6.4 | 6.4 | 0.00 | 0.00 | 0.00 | 38 | 1015.4 |
| 20260508165853 | 18 | 253 | 6.4 | 16.1 | 0.00 | 0.00 | 0.00 | 40 | 1015.4 |
| 20260508165351 | 17 | 299 | 9.7 | 17.7 | 0.00 | 0.00 | 0.00 | 37 | 1015.7 |
| 20260508164846 | 17 | 299 | 8.0 | 20.9 | 0.00 | 0.00 | 0.00 | 37 | 1015.8 |
| 20260508164343 | 18 | 288 | 9.7 | 17.7 | 0.00 | 0.00 | 0.00 | 37 | 1015.6 |
| 20260508163841 | 18 | 252 | 8.0 | 22.5 | 0.00 | 0.00 | 0.00 | 35 | 1016.0 |
| 20260508163339 | 17 | 254 | 3.2 | 11.3 | 0.00 | 0.00 | 0.00 | 40 | 1015.7 |
| 20260508162834 | 18 | 303 | 9.7 | 20.9 | 0.00 | 0.00 | 0.00 | 37 | 1015.7 |